< < Back
Terminal Aerodrome Forecast


Current Version              Previous Versions:   1  2  3  4  5  6  7  8  9  

Terminal Aerodrome Forecast

777
FTUS44 KOHX 270300 AAB
TAFBNA
TAF AMD
KBNA 270348Z 2704/2724 35010G18KT P6SM OVC018
     FM270700 35008KT P6SM SKC
     FM271200 35007KT P6SM OVC100
     FM271700 34010G18KT P6SM OVC100=



Latest METAR

298
SAUS70 KWBC 271000 RRD
MTRBNA
METAR KBNA 270953Z 33004KT 9SM CLR 02/01 A2996 RMK AO2 SLP146
T00220006


USA.gov is the U.S. government's official web portal to all federal, state and local government web resources and services.